createdAt,value
2023-03-08T00:00:15.617Z,24.20
2023-03-08T00:03:04.309Z,24.16
2023-03-08T00:05:53.187Z,24.34
2023-03-08T00:08:42.022Z,24.21
2023-03-08T00:11:32.415Z,24.24
2023-03-08T00:14:22.345Z,24.26
2023-03-08T00:17:12.805Z,24.23
2023-03-08T00:20:01.732Z,24.18
2023-03-08T00:22:50.381Z,24.25
2023-03-08T00:25:38.975Z,24.27
2023-03-08T00:28:29.473Z,24.23
2023-03-08T00:31:18.187Z,24.15
2023-03-08T00:34:06.979Z,24.18
2023-03-08T00:36:55.679Z,24.12
2023-03-08T00:39:44.789Z,24.09
2023-03-08T00:42:33.833Z,24.04
2023-03-08T00:45:23.830Z,24.12
2023-03-08T00:48:12.536Z,24.05
2023-03-08T00:51:01.462Z,24.15
2023-03-08T00:53:50.417Z,24.04
2023-03-08T00:56:39.042Z,24.13
2023-03-08T00:59:27.889Z,24.12
2023-03-08T01:02:17.848Z,24.14
2023-03-08T01:05:07.372Z,24.15
2023-03-08T01:07:56.079Z,24.21
2023-03-08T01:10:49.260Z,24.22
2023-03-08T01:13:37.985Z,24.19
2023-03-08T01:16:29.048Z,24.16
2023-03-08T01:19:19.164Z,24.18
2023-03-08T01:22:07.803Z,24.22
2023-03-08T01:24:56.378Z,24.20
2023-03-08T01:27:45.011Z,24.14
2023-03-08T01:30:33.598Z,24.15
2023-03-08T01:33:22.860Z,24.22
2023-03-08T01:36:15.406Z,24.15
2023-03-08T01:39:04.883Z,24.21
2023-03-08T01:41:53.855Z,24.21
2023-03-08T01:44:53.153Z,24.25
2023-03-08T01:47:41.983Z,24.19
2023-03-08T01:50:31.029Z,24.22
2023-03-08T01:53:21.260Z,24.18
2023-03-08T01:56:13.472Z,24.19
2023-03-08T01:59:02.783Z,24.12
2023-03-08T02:01:51.474Z,24.12
2023-03-08T02:04:41.319Z,24.15
2023-03-08T02:07:30.146Z,24.15
2023-03-08T02:10:20.429Z,24.15
2023-03-08T02:13:10.160Z,24.21
2023-03-08T02:16:00.265Z,24.17
2023-03-08T02:18:56.996Z,24.25
2023-03-08T02:21:45.580Z,24.26
2023-03-08T02:24:35.630Z,24.22
2023-03-08T02:27:27.406Z,24.24
2023-03-08T02:30:18.305Z,24.28
2023-03-08T02:33:06.993Z,24.24
2023-03-08T02:35:55.687Z,24.16
2023-03-08T02:38:44.291Z,24.24
2023-03-08T02:41:34.397Z,24.20
2023-03-08T02:44:22.972Z,24.25
2023-03-08T02:47:11.891Z,24.21
2023-03-08T02:50:00.481Z,24.17
2023-03-08T02:52:49.186Z,24.17
2023-03-08T02:55:38.206Z,24.23
2023-03-08T02:58:28.644Z,24.18
2023-03-08T03:01:17.339Z,24.19
2023-03-08T03:04:06.110Z,24.14
2023-03-08T03:06:54.659Z,24.13
2023-03-08T03:09:43.281Z,24.14
2023-03-08T03:12:32.177Z,24.18
2023-03-08T03:15:22.388Z,24.08
2023-03-08T03:18:11.306Z,24.08
2023-03-08T03:21:05.237Z,24.19
2023-03-08T03:23:55.716Z,24.04
2023-03-08T03:26:44.347Z,24.01
2023-03-08T03:29:33.158Z,24.09
2023-03-08T03:32:23.471Z,24.10
2023-03-08T03:35:12.094Z,24.12
2023-03-08T03:38:00.753Z,24.10
2023-03-08T03:40:49.338Z,24.19
2023-03-08T03:43:38.596Z,24.15
2023-03-08T03:46:27.407Z,24.18
2023-03-08T03:49:17.403Z,24.13
2023-03-08T03:52:06.520Z,24.18
2023-03-08T03:54:55.116Z,24.17
2023-03-08T03:57:44.738Z,24.13
2023-03-08T04:00:33.412Z,24.15
2023-03-08T04:03:22.181Z,24.16
2023-03-08T04:06:14.731Z,24.18
2023-03-08T04:09:05.579Z,24.15
2023-03-08T04:11:54.185Z,24.16
2023-03-08T04:14:42.940Z,24.23
2023-03-08T04:17:31.600Z,24.25
2023-03-08T04:20:20.304Z,24.18
2023-03-08T04:23:10.285Z,24.28
2023-03-08T04:25:59.556Z,24.18
2023-03-08T04:28:48.295Z,24.15
2023-03-08T04:31:37.254Z,24.11
2023-03-08T04:34:25.937Z,24.07
2023-03-08T04:37:14.658Z,24.12
2023-03-08T04:40:09.214Z,24.09
2023-03-08T04:42:58.125Z,24.21
2023-03-08T04:45:46.907Z,24.24
2023-03-08T04:48:36.187Z,24.11
2023-03-08T04:51:26.427Z,24.18
2023-03-08T04:54:15.120Z,24.19
2023-03-08T04:57:05.469Z,24.17
2023-03-08T04:59:54.186Z,24.19
2023-03-08T05:02:42.768Z,24.19
2023-03-08T05:05:31.626Z,24.11
2023-03-08T05:08:20.681Z,24.17
2023-03-08T05:11:09.328Z,24.16
2023-03-08T05:14:00.246Z,24.09
2023-03-08T05:16:48.892Z,24.09
2023-03-08T05:19:37.511Z,24.02
2023-03-08T05:22:26.144Z,23.97
2023-03-08T05:25:15.481Z,24.02
2023-03-08T05:28:04.145Z,24.06
2023-03-08T05:31:02.243Z,24.03
2023-03-08T05:33:52.198Z,24.06
2023-03-08T05:36:42.641Z,24.06
2023-03-08T05:39:31.673Z,24.13
2023-03-08T05:42:20.750Z,24.19
2023-03-08T05:45:10.340Z,24.14
2023-03-08T05:48:00.361Z,24.16
2023-03-08T05:50:49.195Z,24.19
2023-03-08T05:53:38.288Z,24.19
2023-03-08T05:56:27.040Z,24.16
2023-03-08T05:59:15.853Z,24.10
2023-03-08T06:02:04.632Z,24.23
2023-03-08T06:04:54.697Z,24.09
2023-03-08T06:07:44.465Z,24.08
2023-03-08T06:10:33.316Z,24.12
2023-03-08T06:13:24.620Z,24.13
2023-03-08T06:16:13.852Z,24.10
2023-03-08T06:19:03.280Z,24.01
2023-03-08T06:21:53.226Z,24.09
2023-03-08T06:24:42.370Z,24.04
2023-03-08T06:27:31.026Z,23.99
2023-03-08T06:30:20.163Z,23.97
2023-03-08T06:33:08.869Z,24.05
2023-03-08T06:35:59.221Z,24.03
2023-03-08T06:38:49.865Z,24.03
2023-03-08T06:41:38.757Z,24.02
2023-03-08T06:44:27.449Z,24.01
2023-03-08T06:47:16.056Z,24.00
2023-03-08T06:50:05.032Z,24.00
2023-03-08T06:52:53.637Z,23.95
2023-03-08T06:55:43.728Z,23.98
2023-03-08T06:58:32.781Z,23.91
2023-03-08T07:01:21.411Z,23.95
2023-03-08T07:04:15.200Z,23.91
2023-03-08T07:07:04.207Z,23.91
2023-03-08T07:09:52.840Z,23.91
2023-03-08T07:12:43.713Z,23.90
2023-03-08T07:15:32.400Z,23.90
2023-03-08T07:18:21.491Z,23.85
2023-03-08T07:21:11.027Z,23.83
2023-03-08T07:24:00.578Z,23.87
2023-03-08T07:26:49.205Z,23.84
2023-03-08T07:29:39.213Z,23.83
2023-03-08T07:32:29.049Z,23.86
2023-03-08T07:35:18.377Z,23.85
2023-03-08T07:38:07.002Z,23.84
2023-03-08T07:40:56.688Z,23.86
2023-03-08T07:43:45.293Z,23.86
2023-03-08T07:46:35.309Z,23.82
2023-03-08T07:49:23.971Z,23.82
2023-03-08T07:52:12.672Z,23.85
2023-03-08T07:55:02.704Z,23.81
2023-03-08T07:57:51.594Z,23.78
2023-03-08T08:00:40.192Z,23.74
2023-03-08T08:03:31.915Z,23.79
2023-03-08T08:06:20.671Z,23.77
2023-03-08T08:09:10.332Z,23.75
2023-03-08T08:11:58.921Z,23.78
2023-03-08T08:14:47.666Z,23.75
2023-03-08T08:17:36.413Z,23.78
2023-03-08T08:20:26.810Z,23.74
2023-03-08T08:23:15.484Z,23.71
2023-03-08T08:26:06.807Z,23.73
2023-03-08T08:28:55.911Z,23.73
2023-03-08T08:31:44.619Z,23.72
2023-03-08T08:34:33.588Z,23.70
2023-03-08T08:37:23.744Z,23.67
2023-03-08T08:40:13.679Z,23.64
2023-03-08T08:43:02.274Z,23.69
2023-03-08T08:45:55.716Z,23.68
2023-03-08T08:48:44.854Z,23.69
2023-03-08T08:51:34.182Z,23.71
2023-03-08T08:54:24.275Z,23.73
2023-03-08T08:57:12.883Z,23.72
2023-03-08T09:00:01.548Z,23.76
2023-03-08T09:02:50.222Z,23.74
2023-03-08T09:05:41.679Z,23.82
2023-03-08T09:08:30.927Z,23.81
2023-03-08T09:11:21.204Z,23.82
2023-03-08T09:14:09.852Z,23.78
2023-03-08T09:16:58.469Z,23.77
2023-03-08T09:19:47.519Z,23.86
2023-03-08T09:22:36.325Z,23.86
2023-03-08T09:25:25.385Z,23.82
2023-03-08T09:28:15.494Z,23.83
2023-03-08T09:31:12.063Z,23.80
2023-03-08T09:34:01.152Z,23.80
2023-03-08T09:36:50.164Z,23.76
2023-03-08T09:39:40.618Z,23.75
2023-03-08T09:42:31.437Z,23.79
2023-03-08T09:45:24.992Z,23.79
2023-03-08T09:48:16.544Z,23.90
2023-03-08T09:51:06.556Z,23.89
2023-03-08T09:53:58.704Z,23.85
2023-03-08T09:56:48.964Z,23.84
2023-03-08T09:59:42.202Z,23.82
2023-03-08T10:02:38.902Z,23.84
2023-03-08T10:05:31.307Z,23.84
2023-03-08T10:08:24.757Z,23.85
2023-03-08T10:11:18.193Z,23.86
2023-03-08T10:14:14.499Z,23.82
2023-03-08T10:17:06.092Z,23.80
2023-03-08T10:19:59.083Z,23.79
2023-03-08T10:22:48.744Z,23.80
2023-03-08T10:25:37.599Z,23.82
2023-03-08T10:28:27.721Z,23.77
2023-03-08T10:31:25.471Z,23.82
2023-03-08T10:34:16.949Z,23.80
2023-03-08T10:37:09.017Z,23.80
2023-03-08T10:39:59.834Z,23.81
2023-03-08T10:42:54.448Z,23.85
2023-03-08T10:45:43.373Z,23.92
2023-03-08T10:48:32.803Z,23.97
2023-03-08T10:51:23.168Z,23.95
2023-03-08T10:54:17.070Z,23.95
2023-03-08T10:57:06.154Z,23.90
2023-03-08T10:59:54.841Z,23.91
2023-03-08T11:02:43.554Z,23.99
2023-03-08T11:05:32.578Z,24.06
2023-03-08T11:08:23.100Z,24.01
2023-03-08T11:11:14.964Z,24.07
2023-03-08T11:14:04.128Z,24.14
2023-03-08T11:16:59.795Z,24.13
2023-03-08T11:20:01.102Z,24.16
2023-03-08T11:22:58.962Z,24.15
2023-03-08T11:25:49.144Z,24.15
2023-03-08T11:28:48.810Z,24.17
2023-03-08T11:31:43.587Z,24.24
2023-03-08T11:34:44.589Z,24.22
2023-03-08T11:37:38.262Z,24.11
2023-03-08T11:40:29.688Z,24.08
2023-03-08T11:43:29.754Z,23.98
2023-03-08T11:46:24.360Z,24.01
2023-03-08T11:49:26.034Z,23.97
2023-03-08T11:52:23.217Z,23.99
2023-03-08T11:55:33.860Z,24.07
2023-03-08T11:58:26.305Z,24.15
2023-03-08T12:01:18.102Z,24.18
2023-03-08T12:04:13.352Z,24.25
2023-03-08T12:07:04.089Z,24.26
2023-03-08T12:09:58.348Z,24.29
2023-03-08T12:12:50.690Z,24.28
2023-03-08T12:15:42.999Z,24.34
2023-03-08T12:18:37.379Z,24.33
2023-03-08T12:21:34.256Z,24.38
2023-03-08T12:24:29.969Z,24.38
2023-03-08T12:27:22.498Z,24.34
2023-03-08T12:30:23.889Z,24.24
2023-03-08T12:33:14.362Z,24.21
2023-03-08T12:36:04.895Z,24.17
2023-03-08T12:38:56.700Z,24.22
2023-03-08T12:41:45.371Z,24.30
2023-03-08T12:44:34.485Z,24.30
2023-03-08T12:47:24.063Z,24.31
2023-03-08T12:50:18.576Z,24.30
2023-03-08T12:53:24.159Z,24.33
2023-03-08T12:56:26.299Z,24.28
2023-03-08T12:59:33.469Z,24.26
2023-03-08T13:02:31.112Z,24.22
2023-03-08T13:05:22.656Z,24.30
2023-03-08T13:08:25.956Z,24.36
2023-03-08T13:11:16.943Z,24.25
2023-03-08T13:14:26.667Z,24.21
2023-03-08T13:17:34.943Z,24.20
2023-03-08T13:20:26.507Z,24.14
2023-03-08T13:23:24.939Z,24.15
2023-03-08T13:26:25.799Z,24.08
2023-03-08T13:29:18.214Z,24.10
2023-03-08T13:32:12.048Z,24.04
2023-03-08T13:35:01.526Z,24.03
2023-03-08T13:37:58.857Z,24.04
2023-03-08T13:40:52.906Z,24.11
2023-03-08T13:43:41.512Z,24.08
2023-03-08T13:46:31.833Z,24.07
2023-03-08T13:49:22.761Z,24.05
2023-03-08T13:52:18.011Z,23.98
2023-03-08T13:55:09.279Z,23.93
2023-03-08T13:57:58.088Z,23.95
2023-03-08T14:00:46.994Z,23.92
2023-03-08T14:03:37.204Z,23.93
2023-03-08T14:06:29.900Z,23.91
2023-03-08T14:09:19.405Z,23.88
2023-03-08T14:12:09.623Z,23.87
2023-03-08T14:15:00.824Z,23.95
2023-03-08T14:17:51.354Z,24.00
2023-03-08T14:20:41.789Z,24.11
2023-03-08T14:23:30.729Z,24.14
2023-03-08T14:26:28.095Z,24.17
2023-03-08T14:29:21.557Z,24.23
2023-03-08T14:32:31.358Z,24.21
2023-03-08T14:35:24.930Z,24.26
2023-03-08T14:38:24.717Z,24.30
2023-03-08T14:41:15.975Z,24.35
2023-03-08T14:44:05.513Z,24.26
2023-03-08T14:47:14.072Z,24.30
2023-03-08T14:50:36.857Z,24.33
2023-03-08T14:53:30.561Z,24.32
2023-03-08T14:56:22.218Z,24.42
2023-03-08T14:59:27.873Z,24.84
2023-03-08T15:02:18.204Z,24.94
2023-03-08T15:05:09.342Z,24.54
2023-03-08T15:08:00.487Z,24.39
2023-03-08T15:10:51.009Z,24.48
2023-03-08T15:13:40.082Z,24.80
2023-03-08T15:16:31.753Z,25.13
2023-03-08T15:19:20.632Z,25.27
2023-03-08T15:22:09.302Z,25.34
2023-03-08T15:24:58.165Z,25.39
2023-03-08T15:27:50.012Z,25.44
2023-03-08T15:30:38.698Z,25.44
2023-03-08T15:33:27.385Z,25.51
2023-03-08T15:36:20.622Z,25.51
2023-03-08T15:39:10.715Z,25.62
2023-03-08T15:42:00.535Z,25.42
2023-03-08T15:44:50.514Z,25.16
2023-03-08T15:47:39.432Z,25.30
2023-03-08T15:50:29.361Z,25.25
2023-03-08T15:53:29.545Z,25.25
2023-03-08T15:56:25.591Z,25.27
2023-03-08T15:59:14.242Z,25.45
2023-03-08T16:02:04.846Z,25.53
2023-03-08T16:04:55.836Z,25.54
2023-03-08T16:07:46.865Z,25.63
2023-03-08T16:10:40.606Z,25.69
2023-03-08T16:13:32.093Z,25.70
2023-03-08T16:16:27.627Z,25.65
2023-03-08T16:19:22.202Z,25.64
2023-03-08T16:22:11.365Z,25.66
2023-03-08T16:24:59.969Z,25.15
2023-03-08T16:27:52.635Z,25.04
2023-03-08T16:30:42.831Z,25.08
2023-03-08T16:33:31.625Z,25.06
2023-03-08T16:36:21.798Z,24.95
2023-03-08T16:39:10.831Z,25.18
2023-03-08T16:41:59.574Z,25.48
2023-03-08T16:44:51.653Z,25.63
2023-03-08T16:47:40.486Z,25.65
2023-03-08T16:50:29.139Z,25.75
2023-03-08T16:53:21.193Z,25.77
2023-03-08T16:56:10.692Z,25.73
2023-03-08T16:59:00.788Z,25.81
2023-03-08T17:01:50.173Z,25.80
2023-03-08T17:04:38.754Z,25.84
2023-03-08T17:07:27.636Z,25.86
2023-03-08T17:10:18.308Z,25.86
2023-03-08T17:13:07.102Z,25.78
2023-03-08T17:15:55.785Z,25.88
2023-03-08T17:18:44.759Z,25.36
2023-03-08T17:21:38.050Z,25.26
2023-03-08T17:24:27.944Z,25.17
2023-03-08T17:27:18.575Z,25.08
2023-03-08T17:30:10.165Z,25.14
2023-03-08T17:32:58.899Z,25.09
2023-03-08T17:35:47.596Z,24.97
2023-03-08T17:38:36.467Z,24.86
2023-03-08T17:41:25.449Z,24.80
2023-03-08T17:44:15.761Z,24.93
2023-03-08T17:47:04.520Z,24.90
2023-03-08T17:49:53.437Z,24.99
2023-03-08T17:52:42.388Z,24.93
2023-03-08T17:55:31.253Z,24.91
2023-03-08T17:58:20.583Z,24.88
2023-03-08T18:01:12.161Z,24.88
2023-03-08T18:04:01.428Z,24.90
2023-03-08T18:06:50.198Z,24.86
2023-03-08T18:09:38.862Z,24.89
2023-03-08T18:12:27.625Z,24.86
2023-03-08T18:15:16.262Z,24.84
2023-03-08T18:18:06.593Z,24.74
2023-03-08T18:21:01.328Z,24.69
2023-03-08T18:23:56.030Z,24.77
2023-03-08T18:26:44.662Z,24.65
2023-03-08T18:29:37.197Z,24.68
2023-03-08T18:32:27.983Z,24.70
2023-03-08T18:35:18.710Z,24.74
2023-03-08T18:38:07.381Z,24.80
2023-03-08T18:40:58.166Z,24.86
2023-03-08T18:43:46.951Z,24.81
2023-03-08T18:46:35.949Z,24.90
2023-03-08T18:49:24.740Z,24.93
2023-03-08T18:52:14.924Z,24.94
2023-03-08T18:55:04.004Z,25.03
2023-03-08T18:57:53.076Z,25.02
2023-03-08T19:00:41.675Z,25.08
2023-03-08T19:03:30.704Z,24.99
2023-03-08T19:06:19.693Z,24.99
2023-03-08T19:09:13.976Z,24.95
2023-03-08T19:12:03.385Z,24.92
2023-03-08T19:14:52.993Z,24.91
2023-03-08T19:17:41.768Z,24.90
2023-03-08T19:20:31.914Z,25.04
2023-03-08T19:23:20.799Z,24.98
2023-03-08T19:26:32.471Z,24.99
2023-03-08T19:29:22.564Z,24.99
2023-03-08T19:32:14.012Z,25.06
2023-03-08T19:35:04.421Z,25.03
2023-03-08T19:37:53.028Z,25.16
2023-03-08T19:40:45.171Z,25.13
2023-03-08T19:43:37.897Z,25.12
2023-03-08T19:46:26.661Z,25.20
2023-03-08T19:49:17.201Z,25.17
2023-03-08T19:52:07.728Z,25.20
2023-03-08T19:54:56.396Z,25.11
2023-03-08T19:57:45.086Z,25.16
2023-03-08T20:00:35.125Z,25.15
2023-03-08T20:03:23.786Z,25.16
2023-03-08T20:06:12.428Z,25.15
2023-03-08T20:09:03.691Z,25.14
2023-03-08T20:11:57.385Z,25.14
2023-03-08T20:14:46.966Z,25.22
2023-03-08T20:17:39.884Z,25.23
2023-03-08T20:20:28.646Z,25.12
2023-03-08T20:23:17.409Z,25.15
2023-03-08T20:26:06.315Z,25.10
2023-03-08T20:28:56.116Z,25.15
2023-03-08T20:31:48.018Z,25.11
2023-03-08T20:34:38.676Z,25.19
2023-03-08T20:37:27.412Z,25.28
2023-03-08T20:40:18.092Z,25.22
2023-03-08T20:43:10.858Z,25.17
2023-03-08T20:46:01.620Z,25.23
2023-03-08T20:48:50.757Z,25.20
2023-03-08T20:51:40.834Z,25.27
2023-03-08T20:54:29.459Z,25.34
2023-03-08T20:57:18.204Z,25.19
2023-03-08T21:00:09.493Z,25.17
2023-03-08T21:03:01.239Z,25.24
2023-03-08T21:05:50.007Z,25.35
2023-03-08T21:08:39.927Z,25.38
2023-03-08T21:11:28.830Z,25.31
2023-03-08T21:14:17.376Z,25.30
2023-03-08T21:17:05.936Z,25.23
2023-03-08T21:19:54.874Z,25.29
2023-03-08T21:22:43.444Z,25.29
2023-03-08T21:25:36.749Z,25.31
2023-03-08T21:28:25.590Z,25.36
2023-03-08T21:31:14.506Z,25.40
2023-03-08T21:34:03.843Z,25.49
2023-03-08T21:36:52.603Z,25.50
2023-03-08T21:39:41.200Z,25.51
2023-03-08T21:42:31.192Z,25.48
2023-03-08T21:45:19.845Z,25.53
2023-03-08T21:48:10.449Z,25.49
2023-03-08T21:50:59.042Z,25.60
2023-03-08T21:53:47.711Z,25.49
2023-03-08T21:56:36.413Z,25.43
2023-03-08T21:59:27.578Z,25.34
2023-03-08T22:02:16.212Z,25.35
2023-03-08T22:05:05.023Z,25.37
2023-03-08T22:07:53.586Z,25.31
2023-03-08T22:10:42.269Z,25.35
2023-03-08T22:13:30.820Z,25.41
2023-03-08T22:16:21.245Z,25.38
2023-03-08T22:19:11.731Z,25.38
2023-03-08T22:22:00.763Z,25.35
2023-03-08T22:24:49.405Z,25.30
2023-03-08T22:27:38.245Z,25.33
2023-03-08T22:30:26.854Z,25.31
2023-03-08T22:33:18.818Z,25.29
2023-03-08T22:36:08.622Z,25.12
2023-03-08T22:38:57.208Z,25.11
2023-03-08T22:41:45.859Z,25.08
2023-03-08T22:44:34.696Z,25.02
2023-03-08T22:47:23.822Z,24.97
2023-03-08T22:50:14.704Z,24.92
2023-03-08T22:53:03.340Z,24.94
2023-03-08T22:55:52.279Z,24.93
2023-03-08T22:58:40.915Z,24.82
2023-03-08T23:01:30.829Z,24.79
2023-03-08T23:04:20.179Z,24.76
2023-03-08T23:07:10.121Z,24.88
2023-03-08T23:09:59.018Z,24.88
2023-03-08T23:12:48.367Z,24.78
2023-03-08T23:15:37.149Z,24.78
2023-03-08T23:18:25.973Z,24.82
2023-03-08T23:21:16.107Z,24.81
2023-03-08T23:24:06.902Z,24.73
2023-03-08T23:27:01.653Z,24.68
2023-03-08T23:29:53.365Z,24.77
2023-03-08T23:32:42.617Z,24.76
2023-03-08T23:35:31.273Z,24.84
2023-03-08T23:38:19.861Z,24.74
2023-03-08T23:41:11.344Z,24.72
2023-03-08T23:44:01.921Z,24.67
2023-03-08T23:46:50.462Z,24.66
2023-03-08T23:49:39.127Z,24.59
2023-03-08T23:52:27.920Z,24.61
2023-03-08T23:55:16.526Z,24.60
2023-03-08T23:58:06.474Z,24.59
